createdAt,value
2023-05-12T00:00:46.404Z,10.43
2023-05-12T00:03:19.179Z,11.53
2023-05-12T00:05:51.463Z,7.47
2023-05-12T00:08:23.506Z,10.05
2023-05-12T00:10:56.012Z,10.25
2023-05-12T00:13:29.145Z,11.25
2023-05-12T00:16:01.254Z,18.42
2023-05-12T00:18:33.369Z,20.00
2023-05-12T00:21:05.747Z,19.77
2023-05-12T00:23:37.859Z,12.58
2023-05-12T00:26:09.963Z,17.92
2023-05-12T00:28:42.277Z,17.73
2023-05-12T00:31:14.612Z,17.70
2023-05-12T00:33:46.873Z,15.80
2023-05-12T00:36:19.112Z,16.15
2023-05-12T00:38:51.501Z,19.57
2023-05-12T00:41:23.789Z,23.30
2023-05-12T00:43:56.212Z,24.77
2023-05-12T00:46:28.883Z,28.02
2023-05-12T00:49:01.608Z,28.50
2023-05-12T00:51:34.172Z,27.05
2023-05-12T00:54:06.556Z,30.12
2023-05-12T00:56:39.955Z,21.12
2023-05-12T00:59:13.130Z,23.67
2023-05-12T01:01:46.343Z,24.27
2023-05-12T01:04:18.977Z,22.25
2023-05-12T01:06:54.929Z,23.87
2023-05-12T01:09:27.566Z,16.65
2023-05-12T01:12:00.377Z,21.65
2023-05-12T01:14:34.287Z,16.60
2023-05-12T01:17:09.401Z,14.87
2023-05-12T01:19:50.256Z,18.75
2023-05-12T01:22:23.701Z,14.23
2023-05-12T01:25:08.000Z,15.75
2023-05-12T01:27:42.351Z,23.10
2023-05-12T01:30:20.317Z,12.98
2023-05-12T01:32:54.052Z,12.30
2023-05-12T01:35:26.320Z,14.17
2023-05-12T01:38:00.054Z,12.60
2023-05-12T01:40:32.145Z,15.38
2023-05-12T01:43:04.489Z,13.13
2023-05-12T01:45:37.466Z,17.87
2023-05-12T01:48:09.810Z,13.03
2023-05-12T01:50:42.594Z,9.88
2023-05-12T01:53:16.286Z,11.70
2023-05-12T01:55:48.428Z,16.40
2023-05-12T01:58:20.666Z,15.58
2023-05-12T02:00:53.733Z,19.87
2023-05-12T02:03:25.842Z,16.82
2023-05-12T02:05:59.658Z,10.87
2023-05-12T02:08:31.890Z,8.95
2023-05-12T02:11:11.528Z,12.23
2023-05-12T02:13:47.028Z,13.90
2023-05-12T02:16:19.836Z,12.23
2023-05-12T02:18:52.271Z,15.23
2023-05-12T02:21:25.300Z,14.20
2023-05-12T02:23:57.803Z,12.95
2023-05-12T02:26:30.793Z,8.15
2023-05-12T02:29:03.251Z,12.15
2023-05-12T02:31:35.629Z,8.93
2023-05-12T02:34:09.495Z,12.98
2023-05-12T02:36:41.755Z,15.35
2023-05-12T02:39:14.265Z,12.68
2023-05-12T02:41:46.560Z,16.32
2023-05-12T02:44:20.382Z,19.00
2023-05-12T02:46:52.849Z,13.10
2023-05-12T02:49:25.216Z,17.65
2023-05-12T02:51:57.808Z,12.58
2023-05-12T02:54:29.974Z,14.73
2023-05-12T02:57:05.146Z,16.60
2023-05-12T02:59:37.745Z,13.05
2023-05-12T03:02:10.260Z,20.88
2023-05-12T03:04:43.861Z,8.73
2023-05-12T03:07:16.502Z,14.95
2023-05-12T03:09:49.153Z,10.03
2023-05-12T03:12:21.359Z,12.23
2023-05-12T03:14:53.446Z,12.00
2023-05-12T03:17:25.566Z,16.30
2023-05-12T03:19:58.428Z,9.88
2023-05-12T03:22:30.731Z,12.10
2023-05-12T03:25:04.219Z,14.10
2023-05-12T03:27:37.026Z,17.52
2023-05-12T03:30:10.213Z,8.23
2023-05-12T03:32:42.935Z,16.17
2023-05-12T03:35:15.528Z,11.93
2023-05-12T03:37:48.133Z,14.85
2023-05-12T03:40:20.463Z,18.20
2023-05-12T03:42:53.048Z,17.62
2023-05-12T03:45:25.451Z,17.05
2023-05-12T03:47:58.648Z,11.97
2023-05-12T03:50:31.798Z,14.55
2023-05-12T03:53:04.293Z,8.65
2023-05-12T03:55:38.512Z,12.95
2023-05-12T03:58:11.092Z,13.18
2023-05-12T04:00:44.308Z,10.00
2023-05-12T04:03:16.413Z,16.65
2023-05-12T04:05:48.678Z,17.00
2023-05-12T04:08:21.092Z,15.10
2023-05-12T04:10:58.727Z,15.32
2023-05-12T04:13:33.128Z,10.28
2023-05-12T04:16:05.878Z,20.80
2023-05-12T04:18:38.650Z,7.92
2023-05-12T04:21:12.648Z,15.60
2023-05-12T04:23:45.079Z,10.95
2023-05-12T04:26:17.267Z,8.10
2023-05-12T04:28:49.431Z,16.02
2023-05-12T04:31:21.710Z,15.05
2023-05-12T04:33:56.154Z,6.60
2023-05-12T04:36:29.484Z,7.45
2023-05-12T04:41:53.574Z,15.28
2023-05-12T04:44:26.208Z,19.00
2023-05-12T04:46:58.861Z,9.83
2023-05-12T04:49:33.351Z,6.50
2023-05-12T04:52:06.076Z,8.10
2023-05-12T04:54:39.146Z,9.98
2023-05-12T04:57:11.426Z,7.47
2023-05-12T04:59:44.648Z,18.07
2023-05-12T05:02:17.551Z,6.03
2023-05-12T05:04:50.844Z,15.68
2023-05-12T05:07:24.237Z,6.70
2023-05-12T05:09:57.295Z,13.93
2023-05-12T05:12:31.240Z,9.28
2023-05-12T05:15:03.846Z,18.82
2023-05-12T05:17:36.860Z,11.38
2023-05-12T05:20:12.667Z,9.43
2023-05-12T05:25:17.060Z,8.15
2023-05-12T05:27:50.699Z,11.48
2023-05-12T05:30:23.111Z,20.08
2023-05-12T05:32:55.704Z,14.40
2023-05-12T05:35:28.441Z,9.90
2023-05-12T05:38:01.203Z,7.83
2023-05-12T05:40:48.832Z,7.87
2023-05-12T05:43:09.973Z,8.60
2023-05-12T05:45:42.543Z,11.28
2023-05-12T05:48:14.862Z,14.00
2023-05-12T05:50:47.295Z,9.88
2023-05-12T05:53:20.439Z,11.55
2023-05-12T05:55:53.673Z,14.25
2023-05-12T05:58:28.007Z,17.02
2023-05-12T06:01:02.417Z,12.73
2023-05-12T06:03:37.068Z,4.83
2023-05-12T06:06:09.833Z,9.10
2023-05-12T06:08:42.132Z,11.28
2023-05-12T06:11:15.972Z,14.03
2023-05-12T06:13:48.953Z,18.77
2023-05-12T06:16:21.745Z,12.13
2023-05-12T06:18:54.586Z,9.25
2023-05-12T06:21:27.758Z,6.58
2023-05-12T06:23:59.982Z,8.43
2023-05-12T06:26:34.814Z,7.75
2023-05-12T06:29:08.982Z,16.30
2023-05-12T06:31:41.318Z,8.13
2023-05-12T06:34:13.911Z,6.83
2023-05-12T06:36:46.617Z,9.55
2023-05-12T06:39:19.138Z,10.00
2023-05-12T06:41:52.237Z,14.43
2023-05-12T06:44:25.490Z,9.53
2023-05-12T06:46:57.636Z,8.43
2023-05-12T06:49:31.769Z,11.12
2023-05-12T06:52:05.926Z,7.42
2023-05-12T06:54:38.567Z,6.08
2023-05-12T06:57:11.057Z,7.00
2023-05-12T06:59:43.709Z,6.95
2023-05-12T07:02:17.569Z,8.50
2023-05-12T07:04:50.001Z,5.67
2023-05-12T07:07:22.897Z,4.30
2023-05-12T07:09:55.250Z,6.95
2023-05-12T07:12:27.616Z,5.22
2023-05-12T07:15:00.598Z,5.37
2023-05-12T07:17:34.452Z,4.33
2023-05-12T07:20:07.371Z,3.22
2023-05-12T07:22:39.942Z,5.92
2023-05-12T07:25:13.434Z,6.20
2023-05-12T07:27:47.272Z,3.70
2023-05-12T07:30:20.163Z,2.62
2023-05-12T07:32:53.031Z,7.70
2023-05-12T07:35:25.873Z,8.95
2023-05-12T07:37:58.244Z,3.62
2023-05-12T07:40:30.539Z,2.52
2023-05-12T07:43:03.007Z,2.75
2023-05-12T07:45:36.510Z,5.22
2023-05-12T07:48:09.791Z,2.27
2023-05-12T07:50:42.838Z,6.92
2023-05-12T07:53:15.361Z,6.10
2023-05-12T07:55:48.103Z,3.05
2023-05-12T07:58:20.814Z,9.15
2023-05-12T08:00:54.577Z,5.97
2023-05-12T08:03:26.929Z,3.47
2023-05-12T08:05:59.188Z,3.25
2023-05-12T08:08:31.757Z,4.22
2023-05-12T08:11:04.737Z,6.00
2023-05-12T08:13:38.796Z,12.63
2023-05-12T08:16:11.151Z,3.98
2023-05-12T08:18:43.659Z,7.08
2023-05-12T08:21:16.569Z,2.83
2023-05-12T08:23:48.730Z,6.60
2023-05-12T08:26:21.697Z,6.62
2023-05-12T08:28:53.932Z,7.60
2023-05-12T08:31:27.848Z,4.33
2023-05-12T08:34:09.671Z,7.45
2023-05-12T08:36:35.251Z,10.05
2023-05-12T08:39:08.518Z,2.65
2023-05-12T08:41:44.896Z,3.87
2023-05-12T08:44:17.939Z,8.20
2023-05-12T08:46:50.576Z,5.22
2023-05-12T08:49:24.265Z,6.03
2023-05-12T08:51:58.646Z,2.55
2023-05-12T08:54:31.615Z,6.92
2023-05-12T08:57:09.066Z,3.98
2023-05-12T08:59:43.194Z,4.75
2023-05-12T09:02:17.360Z,3.98
2023-05-12T09:04:50.088Z,2.62
2023-05-12T09:07:25.032Z,9.98
2023-05-12T09:10:00.029Z,3.50
2023-05-12T09:12:36.617Z,5.28
2023-05-12T09:15:12.095Z,5.53
2023-05-12T09:17:44.972Z,7.90
2023-05-12T09:20:27.781Z,5.83
2023-05-12T09:22:51.438Z,4.62
2023-05-12T09:25:24.333Z,4.83
2023-05-12T09:27:57.768Z,4.08
2023-05-12T09:30:35.971Z,3.93
2023-05-12T09:33:14.092Z,7.22
2023-05-12T09:35:47.318Z,11.22
2023-05-12T09:40:52.853Z,4.83
2023-05-12T09:43:25.705Z,6.10
2023-05-12T09:45:58.383Z,3.87
2023-05-12T09:48:32.658Z,3.98
2023-05-12T09:53:39.716Z,17.77
2023-05-12T09:56:14.869Z,13.43
2023-05-12T09:58:49.235Z,13.70
2023-05-12T10:01:25.836Z,6.80
2023-05-12T10:03:59.644Z,8.90
2023-05-12T10:06:37.511Z,5.78
2023-05-12T10:09:18.566Z,6.17
2023-05-12T10:11:54.081Z,13.75
2023-05-12T10:14:27.066Z,5.28
2023-05-12T10:17:01.762Z,4.47
2023-05-12T10:22:09.319Z,7.05
2023-05-12T10:24:42.988Z,8.90
2023-05-12T10:27:17.393Z,3.35
2023-05-12T10:29:51.544Z,5.55
2023-05-12T10:32:24.716Z,5.53
2023-05-12T10:34:57.244Z,7.15
2023-05-12T10:37:31.193Z,6.70
2023-05-12T10:40:05.109Z,7.40
2023-05-12T10:42:42.623Z,4.03
2023-05-12T10:45:19.445Z,7.37
2023-05-12T10:47:52.524Z,8.93
2023-05-12T10:50:31.069Z,5.33
2023-05-12T10:53:04.760Z,8.05
2023-05-12T10:55:39.879Z,6.08
2023-05-12T10:58:13.219Z,2.92
2023-05-12T11:00:55.803Z,8.93
2023-05-12T11:03:29.389Z,6.15
2023-05-12T11:06:05.384Z,14.45
2023-05-12T11:08:40.225Z,6.95
2023-05-12T11:11:13.653Z,9.98
2023-05-12T11:13:47.009Z,3.97
2023-05-12T11:16:19.469Z,8.73
2023-05-12T11:19:03.909Z,9.33
2023-05-12T11:21:38.152Z,9.10
2023-05-12T11:24:15.149Z,6.40
2023-05-12T11:26:49.298Z,4.53
2023-05-12T11:29:22.177Z,4.15
2023-05-12T11:31:55.122Z,4.03
2023-05-12T11:34:28.517Z,5.05
2023-05-12T11:37:01.349Z,3.55
2023-05-12T11:39:34.711Z,5.03
2023-05-12T11:42:13.998Z,6.77
2023-05-12T11:44:50.630Z,4.83
2023-05-12T11:47:23.215Z,6.00
2023-05-12T11:49:56.842Z,8.33
2023-05-12T11:52:29.467Z,5.47
2023-05-12T11:55:03.415Z,3.83
2023-05-12T11:57:39.702Z,3.08
2023-05-12T12:00:13.446Z,4.55
2023-05-12T12:02:46.907Z,2.10
2023-05-12T12:05:22.188Z,6.78
2023-05-12T12:07:56.471Z,2.50
2023-05-12T12:10:28.918Z,2.47
2023-05-12T12:13:02.482Z,4.08
2023-05-12T12:15:35.037Z,10.53
2023-05-12T12:18:07.470Z,8.33
2023-05-12T12:20:39.895Z,4.90
2023-05-12T12:23:12.604Z,8.85
2023-05-12T12:25:45.198Z,5.35
2023-05-12T12:28:17.718Z,8.68
2023-05-12T12:30:50.076Z,7.05
2023-05-12T12:33:22.705Z,6.87
2023-05-12T12:35:55.489Z,8.53
2023-05-12T12:38:27.821Z,4.50
2023-05-12T12:41:00.793Z,3.42
2023-05-12T12:43:33.443Z,6.10
2023-05-12T12:46:06.316Z,4.97
2023-05-12T12:48:38.240Z,3.33
2023-05-12T12:51:11.116Z,5.30
2023-05-12T12:53:46.660Z,5.28
2023-05-12T12:56:19.751Z,3.50
2023-05-12T12:58:53.980Z,2.75
2023-05-12T13:01:26.862Z,5.80
2023-05-12T13:04:00.355Z,5.35
2023-05-12T13:06:32.935Z,4.92
2023-05-12T13:09:05.629Z,6.00
2023-05-12T13:11:38.632Z,5.37
2023-05-12T13:14:11.008Z,7.33
2023-05-12T13:16:43.548Z,8.30
2023-05-12T13:19:16.582Z,5.53
2023-05-12T13:21:49.666Z,7.53
2023-05-12T13:24:22.193Z,2.22
2023-05-12T13:26:55.371Z,2.47
2023-05-12T13:29:27.499Z,4.33
2023-05-12T13:31:59.914Z,4.58
2023-05-12T13:34:32.338Z,2.40
2023-05-12T13:37:04.695Z,11.35
2023-05-12T13:39:37.272Z,6.37
2023-05-12T13:42:09.978Z,5.42
2023-05-12T13:44:43.328Z,2.90
2023-05-12T13:47:16.361Z,3.45
2023-05-12T13:49:48.832Z,2.58
2023-05-12T13:52:21.044Z,3.02
2023-05-12T13:54:55.051Z,5.15
2023-05-12T13:59:58.759Z,23.80
2023-05-12T14:02:33.130Z,1.27
2023-05-12T14:05:06.360Z,6.25
2023-05-12T14:07:38.822Z,2.12
2023-05-12T14:10:12.536Z,4.10
2023-05-12T14:12:45.473Z,2.80
2023-05-12T14:20:23.390Z,2.60
2023-05-12T14:22:55.868Z,4.62
2023-05-12T14:25:29.984Z,3.62
2023-05-12T14:28:03.011Z,4.58
2023-05-12T14:30:36.700Z,2.05
2023-05-12T14:33:09.203Z,3.30
2023-05-12T14:35:41.704Z,5.97
2023-05-12T14:38:15.428Z,5.55
2023-05-12T14:40:49.580Z,5.08
2023-05-12T14:43:22.136Z,3.85
2023-05-12T14:45:57.856Z,6.20
2023-05-12T14:48:30.272Z,5.90
2023-05-12T14:51:03.399Z,5.53
2023-05-12T14:53:36.534Z,5.40
2023-05-12T14:56:08.744Z,4.03
2023-05-12T14:58:41.476Z,2.90
2023-05-12T15:01:13.869Z,10.23
2023-05-12T15:03:47.144Z,9.70
2023-05-12T15:06:19.313Z,1.72
2023-05-12T15:08:53.472Z,4.92
2023-05-12T15:11:26.074Z,5.67
2023-05-12T15:13:58.352Z,4.60
2023-05-12T15:16:30.978Z,7.37
2023-05-12T15:19:04.208Z,2.87
2023-05-12T15:21:36.985Z,5.85
2023-05-12T15:24:09.595Z,4.60
2023-05-12T15:26:42.988Z,4.15
2023-05-12T15:29:15.332Z,4.97
2023-05-12T15:31:49.627Z,10.05
2023-05-12T15:34:22.669Z,4.90
2023-05-12T15:36:55.245Z,5.00
2023-05-12T15:39:27.615Z,4.62
2023-05-12T15:42:01.269Z,10.32
2023-05-12T15:44:33.741Z,4.95
2023-05-12T15:47:08.013Z,3.40
2023-05-12T15:49:40.660Z,5.78
2023-05-12T15:52:13.055Z,18.82
2023-05-12T15:54:45.410Z,12.95
2023-05-12T15:57:17.489Z,17.45
2023-05-12T15:59:50.219Z,5.40
2023-05-12T16:02:23.620Z,3.17
2023-05-12T16:04:56.371Z,8.15
2023-05-12T16:07:31.284Z,6.35
2023-05-12T16:10:03.890Z,5.35
2023-05-12T16:12:36.032Z,9.65
2023-05-12T16:15:08.803Z,8.35
2023-05-12T16:17:41.631Z,7.37
2023-05-12T16:20:15.759Z,12.15
2023-05-12T16:22:48.707Z,7.20
2023-05-12T16:25:21.643Z,6.55
2023-05-12T16:27:54.022Z,10.75
2023-05-12T16:30:26.570Z,5.90
2023-05-12T16:32:58.879Z,9.95
2023-05-12T16:35:31.428Z,8.15
2023-05-12T16:38:04.076Z,2.42
2023-05-12T16:40:36.439Z,5.53
2023-05-12T16:43:08.535Z,9.00
2023-05-12T16:45:41.027Z,7.97
2023-05-12T16:48:13.432Z,5.37
2023-05-12T16:50:45.697Z,6.55
2023-05-12T16:53:18.137Z,11.28
2023-05-12T16:55:50.652Z,3.77
2023-05-12T16:58:23.269Z,2.30
2023-05-12T17:00:55.612Z,3.95
2023-05-12T17:03:29.692Z,2.17
2023-05-12T17:06:02.075Z,6.83
2023-05-12T17:08:37.588Z,4.33
2023-05-12T17:11:10.507Z,4.20
2023-05-12T17:13:44.041Z,5.87
2023-05-12T17:16:17.434Z,7.95
2023-05-12T17:21:24.293Z,4.50
2023-05-12T17:23:57.708Z,4.92
2023-05-12T17:26:30.288Z,11.35
2023-05-12T17:29:02.849Z,12.15
2023-05-12T17:31:35.645Z,9.30
2023-05-12T17:34:07.879Z,6.75
2023-05-12T17:36:40.532Z,6.83
2023-05-12T17:39:15.019Z,8.25
2023-05-12T17:41:47.842Z,4.75
2023-05-12T17:44:20.715Z,11.18
2023-05-12T17:46:53.220Z,6.75
2023-05-12T17:49:25.468Z,9.18
2023-05-12T17:51:57.696Z,9.55
2023-05-12T17:54:29.922Z,12.93
2023-05-12T17:57:02.491Z,6.62
2023-05-12T17:59:34.720Z,10.88
2023-05-12T18:02:07.966Z,7.22
2023-05-12T18:04:40.688Z,12.85
2023-05-12T18:07:13.183Z,10.32
2023-05-12T18:09:46.030Z,14.65
2023-05-12T18:12:19.192Z,16.67
2023-05-12T18:14:51.861Z,9.85
2023-05-12T18:17:24.398Z,16.55
2023-05-12T18:19:56.848Z,10.48
2023-05-12T18:22:29.254Z,7.10
2023-05-12T18:25:01.847Z,10.48
2023-05-12T18:27:34.623Z,10.68
2023-05-12T18:30:07.508Z,15.48
2023-05-12T18:32:41.922Z,21.62
2023-05-12T18:37:45.412Z,11.30
2023-05-12T18:40:17.735Z,11.93
2023-05-12T18:42:50.994Z,10.82
2023-05-12T18:45:23.584Z,16.70
2023-05-12T18:47:55.917Z,20.90
2023-05-12T18:50:28.666Z,20.27
2023-05-12T18:53:00.925Z,24.82
2023-05-12T18:55:33.468Z,25.65
2023-05-12T18:58:06.058Z,14.95
2023-05-12T19:00:38.589Z,12.47
2023-05-12T19:03:10.779Z,14.90
2023-05-12T19:05:44.797Z,15.63
2023-05-12T19:08:21.419Z,13.62
2023-05-12T19:10:53.829Z,29.90
2023-05-12T19:13:25.964Z,24.72
2023-05-12T19:15:58.676Z,14.50
2023-05-12T19:18:31.622Z,25.97
2023-05-12T19:21:03.887Z,14.13
2023-05-12T19:23:36.384Z,17.77
2023-05-12T19:26:10.234Z,20.95
2023-05-12T19:28:42.893Z,20.68
2023-05-12T19:31:16.241Z,24.30
2023-05-12T19:33:49.065Z,20.80
2023-05-12T19:36:21.380Z,18.02
2023-05-12T19:38:54.363Z,27.37
2023-05-12T19:41:29.023Z,28.85
2023-05-12T19:44:01.482Z,19.85
2023-05-12T19:46:33.530Z,28.15
2023-05-12T19:49:06.589Z,33.55
2023-05-12T19:51:38.508Z,34.92
2023-05-12T19:54:10.779Z,31.15
2023-05-12T19:56:42.955Z,32.67
2023-05-12T19:59:15.126Z,37.45
2023-05-12T20:01:49.649Z,28.83
2023-05-12T20:06:54.560Z,25.00
2023-05-12T20:09:26.823Z,25.95
2023-05-12T20:11:59.420Z,29.60
2023-05-12T20:14:31.508Z,22.05
2023-05-12T20:17:05.527Z,27.42
2023-05-12T20:19:37.825Z,22.00
2023-05-12T20:22:10.141Z,24.37
2023-05-12T20:24:42.607Z,26.10
2023-05-12T20:27:14.648Z,15.03
2023-05-12T20:29:47.079Z,18.98
2023-05-12T20:32:19.363Z,16.90
2023-05-12T20:34:52.243Z,22.73
2023-05-12T20:37:25.120Z,17.98
2023-05-12T20:39:57.672Z,22.15
2023-05-12T20:42:29.944Z,23.35
2023-05-12T20:45:02.258Z,21.45
2023-05-12T20:47:37.437Z,25.52
2023-05-12T20:50:10.911Z,19.75
2023-05-12T20:52:43.425Z,16.62
2023-05-12T20:55:15.373Z,19.90
2023-05-12T20:57:47.418Z,31.60
2023-05-12T21:00:20.289Z,35.25
2023-05-12T21:02:52.698Z,26.25
2023-05-12T21:05:24.828Z,16.82
2023-05-12T21:07:57.048Z,31.33
2023-05-12T21:10:29.120Z,22.40
2023-05-12T21:13:01.216Z,24.67
2023-05-12T21:15:33.319Z,22.10
2023-05-12T21:18:05.617Z,26.82
2023-05-12T21:20:38.108Z,17.67
2023-05-12T21:23:11.716Z,23.83
2023-05-12T21:25:43.745Z,19.07
2023-05-12T21:28:15.977Z,18.82
2023-05-12T21:30:48.133Z,19.62
2023-05-12T21:33:20.549Z,20.02
2023-05-12T21:35:52.614Z,18.15
2023-05-12T21:38:25.070Z,18.32
2023-05-12T21:40:57.828Z,15.13
2023-05-12T21:43:29.950Z,22.77
2023-05-12T21:46:04.244Z,20.23
2023-05-12T21:48:36.704Z,25.65
2023-05-12T21:51:09.024Z,17.20
2023-05-12T21:53:40.970Z,18.42
2023-05-12T21:56:14.540Z,9.73
2023-05-12T21:58:46.648Z,15.58
2023-05-12T22:01:20.140Z,9.40
2023-05-12T22:03:52.254Z,16.55
2023-05-12T22:06:24.220Z,6.55
2023-05-12T22:08:56.293Z,15.53
2023-05-12T22:11:28.453Z,15.13
2023-05-12T22:14:00.616Z,13.70
2023-05-12T22:16:41.231Z,14.03
2023-05-12T22:19:06.864Z,11.70
2023-05-12T22:21:39.363Z,8.88
2023-05-12T22:24:11.552Z,7.35
2023-05-12T22:26:52.785Z,17.95
2023-05-12T22:29:25.128Z,16.67
2023-05-12T22:31:57.494Z,12.60
2023-05-12T22:34:29.978Z,9.85
2023-05-12T22:37:02.675Z,10.50
2023-05-12T22:39:35.154Z,13.43
2023-05-12T22:42:07.579Z,12.58
2023-05-12T22:44:39.930Z,10.38
2023-05-12T22:47:12.468Z,16.17
2023-05-12T22:49:44.756Z,5.83
2023-05-12T22:52:17.215Z,17.82
2023-05-12T22:54:50.820Z,13.20
2023-05-12T22:57:23.663Z,6.70
2023-05-12T22:59:55.911Z,10.90
2023-05-12T23:02:28.219Z,15.45
2023-05-12T23:05:00.185Z,12.05
2023-05-12T23:07:33.439Z,8.10
2023-05-12T23:10:05.993Z,12.43
2023-05-12T23:12:38.403Z,10.32
2023-05-12T23:15:11.182Z,12.75
2023-05-12T23:17:43.726Z,23.10
2023-05-12T23:20:18.784Z,9.25
2023-05-12T23:22:51.178Z,12.30
2023-05-12T23:25:24.060Z,23.30
2023-05-12T23:27:56.252Z,9.53
2023-05-12T23:30:30.110Z,9.30
2023-05-12T23:33:02.517Z,6.97
2023-05-12T23:35:36.013Z,9.15
2023-05-12T23:38:08.330Z,14.87
2023-05-12T23:40:40.684Z,11.83
2023-05-12T23:43:13.000Z,11.18
2023-05-12T23:45:45.837Z,10.93
2023-05-12T23:48:18.066Z,7.90
2023-05-12T23:50:50.183Z,19.48
2023-05-12T23:53:22.154Z,12.93
2023-05-12T23:55:54.629Z,5.42
2023-05-12T23:58:26.863Z,16.45
